Time;durP1;ratioP1;P1;durP2;ratioP2;P2;SDS_P1;SDS_P2;PMS_P1;PMS_P2;Temp;Humidity;BMP_temperature;BMP_pressure;BME280_temperature;BME280_humidity;BME280_pressure;Samples;Min_cycle;Max_cycle;Signal;HPM_P1;HPM_P2
2022/04/03 00:00:16;;;;;;;4.60;2.58;;;;;;;;;;7401891;19;20473;-82
2022/04/03 00:02:41;;;;;;;3.15;2.17;;;;;;;;;;7397844;19;20083;-83
2022/04/03 00:05:08;;;;;;;3.03;2.55;;;;;;;;;;7400538;19;20018;-82
2022/04/03 00:07:33;;;;;;;3.03;2.25;;;;;;;;;;7398443;19;20359;-82
2022/04/03 00:09:59;;;;;;;4.22;2.88;;;;;;;;;;7395341;19;20014;-83
2022/04/03 00:12:25;;;;;;;4.20;2.70;;;;;;;;;;7395085;19;20015;-83
2022/04/03 00:14:51;;;;;;;3.42;2.45;;;;;;;;;;7396636;19;20721;-81
2022/04/03 00:17:16;;;;;;;2.92;2.22;;;;;;;;;;7395715;19;20066;-81
2022/04/03 00:19:42;;;;;;;6.07;2.40;;;;;;;;;;7396030;19;20017;-81
2022/04/03 00:22:08;;;;;;;3.53;2.63;;;;;;;;;;7396324;19;20010;-81
2022/04/03 00:24:33;;;;;;;3.50;2.58;;;;;;;;;;7396651;19;20011;-80
2022/04/03 00:26:58;;;;;;;3.63;2.63;;;;;;;;;;7396711;19;20002;-82
2022/04/03 00:29:23;;;;;;;3.47;2.67;;;;;;;;;;7396415;19;20111;-81
2022/04/03 00:31:49;;;;;;;2.85;2.13;;;;;;;;;;7397227;19;20003;-81
2022/04/03 00:34:15;;;;;;;3.10;2.25;;;;;;;;;;7395879;19;20005;-81
2022/04/03 00:36:40;;;;;;;3.80;2.60;;;;;;;;;;7398751;19;20014;-81
2022/04/03 00:39:05;;;;;;;4.15;2.72;;;;;;;;;;7398872;19;20124;-81
2022/04/03 00:41:30;;;;;;;4.53;3.03;;;;;;;;;;7397246;19;20003;-81
2022/04/03 00:43:58;;;;;;;5.03;2.40;;;;;;;;;;7399071;19;20027;-82
2022/04/03 00:46:26;;;;;;;2.88;2.10;;;;;;;;;;7400179;19;20431;-82
2022/04/03 00:48:52;;;;;;;2.58;2.05;;;;;;;;;;7398537;19;20011;-82
2022/04/03 00:51:18;;;;;;;4.18;2.22;;;;;;;;;;7400435;19;20007;-82
2022/04/03 00:53:43;;;;;;;2.70;2.10;;;;;;;;;;7398988;19;20011;-82
2022/04/03 00:56:08;;;;;;;3.30;2.33;;;;;;;;;;7399215;19;20037;-81
2022/04/03 00:58:37;;;;;;;3.88;2.70;;;;;;;;;;7395641;19;20036;-81
2022/04/03 01:01:02;;;;;;;3.20;2.22;;;;;;;;;;7397692;19;20031;-81
2022/04/03 01:03:28;;;;;;;3.78;2.50;;;;;;;;;;7392010;19;20007;-81
2022/04/03 01:05:55;;;;;;;3.55;1.75;;;;;;;;;;7394639;19;20323;-82
2022/04/03 01:08:23;;;;;;;4.10;2.50;;;;;;;;;;7391142;19;20036;-82
2022/04/03 01:10:48;;;;;;;4.25;2.67;;;;;;;;;;7395729;19;20055;-81
2022/04/03 01:13:14;;;;;;;3.38;2.17;;;;;;;;;;7390987;19;20478;-80
2022/04/03 01:15:39;;;;;;;3.22;2.30;;;;;;;;;;7385248;19;20066;-80
2022/04/03 01:18:04;;;;;;;3.25;2.42;;;;;;;;;;7388597;19;20022;-80
2022/04/03 01:20:30;;;;;;;3.80;2.53;;;;;;;;;;7394296;19;20005;-81
2022/04/03 01:22:55;;;;;;;4.45;2.25;;;;;;;;;;7393262;19;20015;-81
2022/04/03 01:25:21;;;;;;;3.95;2.28;;;;;;;;;;7396382;19;20069;-81
2022/04/03 01:27:46;;;;;;;3.20;2.13;;;;;;;;;;7392856;19;20027;-81
2022/04/03 01:30:12;;;;;;;4.38;2.83;;;;;;;;;;7394140;19;20006;-81
2022/04/03 01:32:38;;;;;;;3.90;2.38;;;;;;;;;;7391829;19;20006;-81
2022/04/03 01:35:04;;;;;;;3.83;2.25;;;;;;;;;;7395545;19;20388;-81
2022/04/03 01:37:29;;;;;;;4.70;2.55;;;;;;;;;;7396022;19;20154;-82
2022/04/03 01:39:55;;;;;;;5.63;2.15;;;;;;;;;;7400569;19;20029;-81
2022/04/03 01:42:20;;;;;;;3.83;2.85;;;;;;;;;;7401637;19;20306;-81
2022/04/03 01:44:46;;;;;;;3.15;2.20;;;;;;;;;;7402739;19;20017;-81
2022/04/03 01:47:12;;;;;;;4.10;2.75;;;;;;;;;;7402484;19;20032;-82
2022/04/03 01:49:37;;;;;;;4.45;2.38;;;;;;;;;;7421169;19;20003;-81
2022/04/03 01:52:03;;;;;;;4.05;2.67;;;;;;;;;;7423165;19;20017;-80
2022/04/03 01:54:28;;;;;;;5.20;2.72;;;;;;;;;;7423858;19;19998;-80
2022/04/03 01:56:53;;;;;;;4.65;2.90;;;;;;;;;;7423770;19;20002;-80
2022/04/03 01:59:18;;;;;;;4.35;2.70;;;;;;;;;;7415385;19;20007;-81
2022/04/03 02:01:44;;;;;;;4.93;3.10;;;;;;;;;;7391474;19;20521;-80
2022/04/03 02:04:09;;;;;;;4.68;2.80;;;;;;;;;;7392493;19;20014;-81
2022/04/03 02:06:35;;;;;;;3.75;2.50;;;;;;;;;;7391622;19;20032;-81
2022/04/03 02:09:04;;;;;;;6.32;2.83;;;;;;;;;;7386694;19;20387;-82
2022/04/03 02:11:30;;;;;;;5.00;3.30;;;;;;;;;;7387137;19;20023;-81
2022/04/03 02:13:55;;;;;;;3.92;2.90;;;;;;;;;;7390252;19;20045;-81
2022/04/03 02:16:22;;;;;;;5.00;2.78;;;;;;;;;;7393433;19;20093;-81
2022/04/03 02:18:47;;;;;;;4.05;2.55;;;;;;;;;;7388545;19;20002;-81
2022/04/03 02:21:12;;;;;;;6.40;3.45;;;;;;;;;;7392573;19;20029;-81
2022/04/03 02:23:38;;;;;;;4.68;3.08;;;;;;;;;;7388415;19;20030;-81
2022/04/03 02:26:03;;;;;;;5.65;3.30;;;;;;;;;;7391344;19;20014;-81
2022/04/03 02:28:29;;;;;;;6.88;3.30;;;;;;;;;;7387465;19;20377;-81
2022/04/03 02:30:54;;;;;;;4.75;2.92;;;;;;;;;;7391796;19;20018;-81
2022/04/03 02:33:20;;;;;;;7.82;3.20;;;;;;;;;;7389948;19;20139;-81
2022/04/03 02:35:45;;;;;;;4.60;3.20;;;;;;;;;;7389097;19;20021;-81
2022/04/03 02:38:10;;;;;;;5.07;3.03;;;;;;;;;;7389767;19;20079;-83
2022/04/03 02:40:36;;;;;;;6.40;3.60;;;;;;;;;;7389764;19;20010;-82
2022/04/03 02:43:02;;;;;;;5.57;3.30;;;;;;;;;;7390080;19;20469;-83
2022/04/03 02:45:27;;;;;;;5.40;3.25;;;;;;;;;;7398766;19;20502;-83
2022/04/03 02:47:54;;;;;;;6.53;4.03;;;;;;;;;;7398767;19;20011;-83
2022/04/03 02:50:21;;;;;;;5.03;3.15;;;;;;;;;;7400048;19;20348;-81
2022/04/03 02:52:48;;;;;;;6.47;3.80;;;;;;;;;;7400140;19;20024;-82
2022/04/03 02:55:13;;;;;;;5.78;3.67;;;;;;;;;;7399999;19;20139;-81
2022/04/03 02:57:39;;;;;;;4.95;3.60;;;;;;;;;;7405958;19;20018;-81
2022/04/03 03:00:06;;;;;;;5.25;3.38;;;;;;;;;;7404779;19;20395;-81
2022/04/03 03:02:31;;;;;;;6.97;3.53;;;;;;;;;;7402905;19;20066;-81
2022/04/03 03:04:57;;;;;;;6.03;3.22;;;;;;;;;;7403104;19;20011;-81
2022/04/03 03:07:23;;;;;;;5.40;3.40;;;;;;;;;;7404815;19;20046;-81
2022/04/03 03:09:49;;;;;;;4.60;3.30;;;;;;;;;;7405785;19;20055;-81
2022/04/03 03:12:14;;;;;;;5.93;3.80;;;;;;;;;;7406382;19;20042;-84
2022/04/03 03:14:40;;;;;;;4.68;2.92;;;;;;;;;;7409018;19;20006;-82
2022/04/03 03:17:05;;;;;;;5.68;3.50;;;;;;;;;;7409800;19;20009;-80
2022/04/03 03:19:30;;;;;;;7.70;4.15;;;;;;;;;;7407631;19;20015;-81
2022/04/03 03:21:56;;;;;;;4.65;3.40;;;;;;;;;;7408245;19;20023;-81
2022/04/03 03:24:21;;;;;;;5.40;3.40;;;;;;;;;;7410049;19;20608;-81
2022/04/03 03:26:46;;;;;;;5.93;3.50;;;;;;;;;;7408977;19;20002;-82
2022/04/03 03:29:12;;;;;;;4.13;2.92;;;;;;;;;;7409545;19;20010;-80
2022/04/03 03:31:37;;;;;;;5.47;3.53;;;;;;;;;;7411121;19;20009;-81
2022/04/03 03:34:03;;;;;;;4.88;3.30;;;;;;;;;;7409589;19;20019;-82
2022/04/03 03:36:28;;;;;;;6.68;3.88;;;;;;;;;;7410142;19;20122;-80
2022/04/03 03:38:54;;;;;;;5.18;3.00;;;;;;;;;;7407381;19;20009;-81
2022/04/03 03:41:20;;;;;;;4.85;2.95;;;;;;;;;;7408494;19;20041;-81
2022/04/03 03:43:45;;;;;;;5.18;3.08;;;;;;;;;;7409831;19;20006;-82
2022/04/03 03:46:10;;;;;;;6.30;4.07;;;;;;;;;;7409113;19;20006;-81
2022/04/03 03:48:36;;;;;;;4.70;3.22;;;;;;;;;;7406819;19;20039;-80
2022/04/03 03:51:02;;;;;;;6.82;3.85;;;;;;;;;;7402463;19;20019;-82
2022/04/03 03:53:29;;;;;;;5.35;3.40;;;;;;;;;;7402303;19;20039;-81
2022/04/03 03:55:54;;;;;;;5.88;3.35;;;;;;;;;;7406001;19;20055;-81
2022/04/03 03:58:19;;;;;;;5.43;3.55;;;;;;;;;;7403437;19;20011;-80
2022/04/03 04:00:45;;;;;;;5.97;3.70;;;;;;;;;;7405480;19;20017;-81
2022/04/03 04:03:10;;;;;;;5.22;3.75;;;;;;;;;;7406461;19;20013;-80
2022/04/03 04:05:36;;;;;;;6.35;3.65;;;;;;;;;;7410578;19;20013;-81
2022/04/03 04:08:01;;;;;;;5.60;3.65;;;;;;;;;;7412311;19;20010;-80
2022/04/03 04:10:27;;;;;;;5.25;3.58;;;;;;;;;;7408152;19;20018;-80
2022/04/03 04:12:52;;;;;;;7.13;4.00;;;;;;;;;;7409123;19;20007;-81
2022/04/03 04:15:17;;;;;;;5.88;4.07;;;;;;;;;;7410312;19;20010;-82
2022/04/03 04:17:45;;;;;;;6.63;4.22;;;;;;;;;;7410226;19;20006;-80
2022/04/03 04:20:18;;;;;;;5.13;3.13;;;;;;;;;;7411772;19;20006;-80
2022/04/03 04:22:45;;;;;;;4.97;3.13;;;;;;;;;;7409763;19;20007;-81
2022/04/03 04:25:12;;;;;;;6.80;2.97;;;;;;;;;;7409660;19;20015;-81
2022/04/03 04:27:37;;;;;;;5.75;3.47;;;;;;;;;;7408657;19;20022;-81
2022/04/03 04:30:04;;;;;;;6.38;3.42;;;;;;;;;;7408331;19;20010;-81
2022/04/03 04:32:29;;;;;;;5.82;3.40;;;;;;;;;;7410100;19;20334;-81
2022/04/03 04:34:54;;;;;;;7.13;3.63;;;;;;;;;;7409589;19;20043;-82
2022/04/03 04:37:20;;;;;;;5.90;3.58;;;;;;;;;;7407118;19;20011;-80
2022/04/03 04:39:46;;;;;;;6.35;3.40;;;;;;;;;;7407055;19;20109;-80
2022/04/03 04:42:12;;;;;;;4.68;2.90;;;;;;;;;;7409749;19;20002;-81
2022/04/03 04:44:37;;;;;;;5.57;3.25;;;;;;;;;;7406472;19;20011;-80
2022/04/03 04:47:03;;;;;;;4.97;3.15;;;;;;;;;;7408510;19;20041;-81
2022/04/03 04:49:28;;;;;;;4.35;2.35;;;;;;;;;;7401220;19;20018;-79
2022/04/03 04:51:54;;;;;;;3.97;2.40;;;;;;;;;;7400292;19;20006;-79
2022/04/03 04:54:19;;;;;;;3.58;2.47;;;;;;;;;;7399154;19;20021;-80
2022/04/03 04:56:44;;;;;;;4.68;2.63;;;;;;;;;;7401835;19;20049;-78
2022/04/03 04:59:10;;;;;;;4.75;2.45;;;;;;;;;;7398923;19;20010;-79
2022/04/03 05:01:36;;;;;;;4.50;2.92;;;;;;;;;;7388675;19;19999;-80
2022/04/03 05:04:02;;;;;;;3.15;2.22;;;;;;;;;;7383998;19;20071;-82
2022/04/03 05:06:27;;;;;;;5.32;3.17;;;;;;;;;;7389232;19;20041;-79
2022/04/03 05:08:54;;;;;;;5.47;2.92;;;;;;;;;;7391228;19;21504;-78
2022/04/03 05:11:19;;;;;;;5.35;3.45;;;;;;;;;;7390530;19;20010;-79
2022/04/03 05:13:46;;;;;;;7.95;3.22;;;;;;;;;;7389207;19;20416;-78
2022/04/03 05:16:11;;;;;;;9.50;3.83;;;;;;;;;;7392901;19;20003;-79
2022/04/03 05:18:37;;;;;;;6.35;3.47;;;;;;;;;;7391605;19;20020;-79
2022/04/03 05:21:06;;;;;;;5.57;3.35;;;;;;;;;;7392266;19;20006;-79
2022/04/03 05:23:31;;;;;;;4.65;3.20;;;;;;;;;;7391331;19;20434;-78
2022/04/03 05:25:57;;;;;;;9.55;3.88;;;;;;;;;;7394572;19;20064;-79
2022/04/03 05:28:23;;;;;;;5.32;3.10;;;;;;;;;;7392302;19;20018;-78
2022/04/03 05:30:48;;;;;;;4.80;3.08;;;;;;;;;;7391105;19;20010;-79
2022/04/03 05:33:14;;;;;;;4.93;2.88;;;;;;;;;;7392533;19;20006;-79
2022/04/03 05:35:40;;;;;;;5.85;3.53;;;;;;;;;;7390693;19;20015;-78
2022/04/03 05:38:05;;;;;;;4.93;3.28;;;;;;;;;;7391366;19;20014;-78
2022/04/03 05:40:31;;;;;;;5.07;3.28;;;;;;;;;;7392500;19;20070;-78
2022/04/03 05:42:56;;;;;;;4.60;2.53;;;;;;;;;;7395541;19;20014;-79
2022/04/03 05:45:22;;;;;;;4.72;2.88;;;;;;;;;;7397970;19;20005;-79
2022/04/03 05:47:48;;;;;;;8.23;2.75;;;;;;;;;;7390865;19;20107;-78
2022/04/03 05:50:14;;;;;;;4.60;2.72;;;;;;;;;;7390699;19;20002;-78
2022/04/03 05:52:48;;;;;;;2.47;2.15;;;;;;;;;;7391024;19;20009;-79
2022/04/03 05:55:16;;;;;;;6.47;3.00;;;;;;;;;;7392823;19;20033;-78
2022/04/03 05:57:41;;;;;;;4.10;2.25;;;;;;;;;;7391548;19;20002;-78
2022/04/03 06:00:12;;;;;;;4.00;2.47;;;;;;;;;;7388943;19;20003;-79
2022/04/03 06:02:57;;;;;;;3.92;2.53;;;;;;;;;;7391180;19;20011;-79
2022/04/03 06:05:25;;;;;;;4.15;2.53;;;;;;;;;;7390121;19;20024;-78
2022/04/03 06:07:51;;;;;;;4.15;2.50;;;;;;;;;;7393558;19;19995;-79
2022/04/03 06:10:18;;;;;;;4.90;2.58;;;;;;;;;;7390853;19;20070;-78
2022/04/03 06:13:02;;;;;;;3.50;2.25;;;;;;;;;;7390667;19;20082;-78
2022/04/03 06:15:33;;;;;;;4.03;2.88;;;;;;;;;;7387996;19;20011;-78
2022/04/03 06:17:59;;;;;;;3.22;2.10;;;;;;;;;;7390983;19;20014;-78
2022/04/03 06:20:25;;;;;;;6.40;3.08;;;;;;;;;;7393442;19;20358;-78
2022/04/03 06:22:50;;;;;;;4.38;2.42;;;;;;;;;;7396627;19;20010;-77
2022/04/03 06:25:15;;;;;;;4.28;2.40;;;;;;;;;;7399744;19;19999;-78
2022/04/03 06:27:41;;;;;;;4.03;2.67;;;;;;;;;;7388031;19;20017;-78
2022/04/03 06:30:07;;;;;;;4.38;2.35;;;;;;;;;;7391156;19;20047;-79
2022/04/03 06:32:32;;;;;;;4.18;2.88;;;;;;;;;;7391726;19;20014;-78
2022/04/03 06:34:58;;;;;;;3.63;2.45;;;;;;;;;;7388634;19;20011;-79
2022/04/03 06:37:23;;;;;;;4.15;2.50;;;;;;;;;;7392110;19;20319;-79
2022/04/03 06:39:48;;;;;;;4.35;2.95;;;;;;;;;;7348113;19;20026;-79
2022/04/03 06:42:14;;;;;;;5.03;2.75;;;;;;;;;;7389710;19;20059;-79
2022/04/03 06:44:40;;;;;;;4.28;2.60;;;;;;;;;;7391267;19;20003;-79
2022/04/03 06:47:06;;;;;;;4.97;3.08;;;;;;;;;;7390513;19;20014;-78
2022/04/03 06:49:32;;;;;;;5.05;2.60;;;;;;;;;;7388769;19;20074;-79
2022/04/03 06:51:57;;;;;;;3.72;2.35;;;;;;;;;;7389311;19;20026;-78
2022/04/03 06:54:23;;;;;;;3.33;2.35;;;;;;;;;;7390548;19;20102;-79
2022/04/03 06:56:48;;;;;;;4.47;3.30;;;;;;;;;;7392588;19;20018;-79
2022/04/03 06:59:13;;;;;;;7.68;2.85;;;;;;;;;;7390215;19;20074;-79
2022/04/03 07:01:39;;;;;;;4.05;2.72;;;;;;;;;;7387199;19;20018;-79
2022/04/03 07:04:05;;;;;;;5.22;2.75;;;;;;;;;;7388241;19;20118;-78
2022/04/03 07:06:30;;;;;;;8.63;4.20;;;;;;;;;;7391208;19;20355;-78
2022/04/03 07:08:55;;;;;;;11.82;5.18;;;;;;;;;;7389318;19;20003;-79
2022/04/03 07:11:20;;;;;;;13.18;5.65;;;;;;;;;;7391385;19;20032;-79
2022/04/03 07:13:46;;;;;;;9.68;5.10;;;;;;;;;;7388140;19;20021;-79
2022/04/03 07:16:12;;;;;;;6.75;3.90;;;;;;;;;;7391929;19;20007;-78
2022/04/03 07:18:37;;;;;;;5.53;3.53;;;;;;;;;;7390128;19;20014;-79
2022/04/03 07:21:04;;;;;;;6.80;3.50;;;;;;;;;;7392677;19;20003;-79
2022/04/03 07:23:32;;;;;;;5.32;3.83;;;;;;;;;;7391313;19;20035;-80
2022/04/03 07:25:58;;;;;;;5.57;3.78;;;;;;;;;;7368634;19;20469;-80
2022/04/03 07:28:23;;;;;;;5.85;4.25;;;;;;;;;;7391084;19;20006;-79
2022/04/03 07:30:48;;;;;;;7.20;3.85;;;;;;;;;;7399580;19;20392;-79
2022/04/03 07:33:14;;;;;;;5.95;3.42;;;;;;;;;;7397893;19;20403;-79
2022/04/03 07:35:40;;;;;;;6.60;3.97;;;;;;;;;;7394550;19;20003;-80
2022/04/03 07:38:05;;;;;;;5.35;3.47;;;;;;;;;;7396418;19;20461;-80
2022/04/03 07:40:31;;;;;;;9.65;3.67;;;;;;;;;;7396427;19;20012;-81
2022/04/03 07:42:56;;;;;;;6.03;4.05;;;;;;;;;;7394882;19;20048;-80
2022/04/03 07:45:22;;;;;;;6.05;3.47;;;;;;;;;;7399256;19;20442;-80
2022/04/03 07:47:48;;;;;;;3.85;2.95;;;;;;;;;;7398469;19;20453;-80
2022/04/03 07:50:15;;;;;;;5.97;3.60;;;;;;;;;;7397303;19;20007;-80
2022/04/03 07:52:41;;;;;;;4.97;3.00;;;;;;;;;;7396994;19;20019;-81
2022/04/03 07:55:10;;;;;;;8.55;4.63;;;;;;;;;;7394208;19;20007;-81
2022/04/03 07:57:37;;;;;;;4.93;3.25;;;;;;;;;;7397613;19;20493;-80
2022/04/03 08:00:06;;;;;;;5.63;3.17;;;;;;;;;;7395600;19;20010;-80
2022/04/03 08:02:32;;;;;;;7.68;4.45;;;;;;;;;;7398695;19;20466;-81
2022/04/03 08:04:58;;;;;;;5.85;3.75;;;;;;;;;;7397889;19;20002;-81
2022/04/03 08:07:37;;;;;;;7.68;3.50;;;;;;;;;;7397994;19;20022;-80
2022/04/03 08:10:05;;;;;;;6.75;3.92;;;;;;;;;;7398169;19;20010;-80
2022/04/03 08:12:31;;;;;;;6.60;3.25;;;;;;;;;;7393897;19;20038;-81
2022/04/03 08:14:56;;;;;;;4.43;3.13;;;;;;;;;;7394958;19;20042;-79
2022/04/03 08:17:21;;;;;;;5.40;3.15;;;;;;;;;;7398552;19;20018;-81
2022/04/03 08:19:47;;;;;;;5.72;3.10;;;;;;;;;;7395949;19;19999;-80
2022/04/03 08:22:12;;;;;;;5.25;3.33;;;;;;;;;;7395620;19;20486;-77
2022/04/03 08:24:37;;;;;;;4.38;3.08;;;;;;;;;;7398508;19;20017;-79
2022/04/03 08:27:03;;;;;;;4.75;3.03;;;;;;;;;;7395577;19;20442;-78
2022/04/03 08:29:28;;;;;;;5.03;2.95;;;;;;;;;;7393828;19;20041;-78
2022/04/03 08:31:53;;;;;;;5.75;2.78;;;;;;;;;;7395867;19;20019;-79
2022/04/03 08:34:19;;;;;;;4.93;3.10;;;;;;;;;;7418979;19;19998;-79
2022/04/03 08:36:44;;;;;;;4.20;2.67;;;;;;;;;;7417521;19;20006;-78
2022/04/03 08:39:09;;;;;;;6.88;3.55;;;;;;;;;;7425259;19;20031;-78
2022/04/03 08:41:35;;;;;;;5.55;3.03;;;;;;;;;;7423810;19;20009;-79
2022/04/03 08:44:00;;;;;;;4.40;3.03;;;;;;;;;;7422793;19;20015;-78
2022/04/03 08:46:26;;;;;;;3.55;2.40;;;;;;;;;;7423003;19;20017;-78
2022/04/03 08:48:53;;;;;;;4.05;3.05;;;;;;;;;;7420397;19;20010;-78
2022/04/03 08:51:19;;;;;;;4.03;2.80;;;;;;;;;;7423868;19;20037;-80
2022/04/03 08:53:48;;;;;;;3.17;2.38;;;;;;;;;;7414262;19;20003;-79
2022/04/03 08:56:13;;;;;;;4.50;2.80;;;;;;;;;;7408671;19;20023;-79
2022/04/03 08:58:38;;;;;;;7.40;3.15;;;;;;;;;;7405371;19;20170;-81
2022/04/03 09:01:04;;;;;;;7.40;4.45;;;;;;;;;;7411407;19;20146;-80
2022/04/03 09:03:29;;;;;;;8.95;4.55;;;;;;;;;;7424577;19;19994;-83
2022/04/03 09:06:11;;;;;;;19.10;7.30;;;;;;;;;;7428514;19;20011;-82
2022/04/03 09:08:37;;;;;;;6.40;3.45;;;;;;;;;;7419881;19;20028;-80
2022/04/03 09:11:04;;;;;;;4.38;2.70;;;;;;;;;;7393170;19;20018;-79
2022/04/03 09:13:29;;;;;;;5.55;3.50;;;;;;;;;;7396722;19;20478;-80
2022/04/03 09:15:54;;;;;;;3.67;2.78;;;;;;;;;;7401482;19;20006;-80
2022/04/03 09:18:20;;;;;;;4.85;2.60;;;;;;;;;;7402798;19;20062;-79
2022/04/03 09:20:45;;;;;;;4.78;3.38;;;;;;;;;;7405089;19;19995;-79
2022/04/03 09:23:11;;;;;;;6.72;4.10;;;;;;;;;;7395711;19;20003;-78
2022/04/03 09:25:39;;;;;;;5.18;3.45;;;;;;;;;;7396904;19;20010;-80
2022/04/03 09:28:07;;;;;;;6.57;4.28;;;;;;;;;;7394730;19;20002;-81
2022/04/03 09:30:35;;;;;;;6.30;4.45;;;;;;;;;;7395564;19;20019;-80
2022/04/03 09:33:02;;;;;;;4.40;2.90;;;;;;;;;;7394660;19;20010;-80
2022/04/03 09:35:30;;;;;;;5.47;2.95;;;;;;;;;;7393702;19;20017;-80
2022/04/03 09:38:11;;;;;;;3.75;2.10;;;;;;;;;;7396544;19;20449;-80
2022/04/03 09:40:40;;;;;;;3.88;2.55;;;;;;;;;;7393295;19;20015;-80
2022/04/03 09:43:12;;;;;;;3.25;2.60;;;;;;;;;;7391588;19;20010;-79
2022/04/03 09:45:45;;;;;;;3.97;2.40;;;;;;;;;;7396085;19;20035;-79
2022/04/03 09:48:41;;;;;;;3.90;2.30;;;;;;;;;;7389647;19;20421;-79
2022/04/03 09:51:11;;;;;;;4.95;2.55;;;;;;;;;;7394136;19;20010;-79
2022/04/03 09:53:45;;;;;;;4.03;2.63;;;;;;;;;;7389431;19;19998;-79
2022/04/03 09:56:13;;;;;;;4.90;2.60;;;;;;;;;;7391201;19;20470;-79
2022/04/03 09:58:51;;;;;;;5.72;2.13;;;;;;;;;;7391983;19;20270;-78
2022/04/03 10:01:26;;;;;;;5.18;2.75;;;;;;;;;;7393432;19;20761;-79
2022/04/03 10:03:53;;;;;;;3.83;2.20;;;;;;;;;;7393260;19;20214;-79
2022/04/03 10:06:18;;;;;;;4.38;2.05;;;;;;;;;;7390605;19;20039;-79
2022/04/03 10:08:48;;;;;;;2.88;1.92;;;;;;;;;;7389143;19;20530;-80
2022/04/03 10:11:15;;;;;;;4.35;1.88;;;;;;;;;;7390305;19;20014;-79
2022/04/03 10:13:42;;;;;;;4.32;2.30;;;;;;;;;;7392050;19;20002;-79
2022/04/03 10:16:18;;;;;;;3.83;2.22;;;;;;;;;;7391655;19;20048;-79
2022/04/03 10:18:44;;;;;;;4.38;2.38;;;;;;;;;;7392950;19;19994;-79
2022/04/03 10:21:22;;;;;;;2.95;1.88;;;;;;;;;;7394151;19;20084;-79
2022/04/03 10:23:48;;;;;;;3.22;1.75;;;;;;;;;;7387977;19;20035;-79
2022/04/03 10:26:18;;;;;;;3.30;2.20;;;;;;;;;;7394147;19;20006;-79
2022/04/03 10:28:54;;;;;;;2.80;1.67;;;;;;;;;;7391746;19;20620;-79
2022/04/03 10:31:20;;;;;;;2.85;1.90;;;;;;;;;;7391471;19;20458;-79
2022/04/03 10:33:49;;;;;;;3.72;1.65;;;;;;;;;;7390721;19;20002;-79
2022/04/03 10:36:22;;;;;;;2.25;1.70;;;;;;;;;;7393209;19;20005;-79
2022/04/03 10:39:03;;;;;;;2.17;1.80;;;;;;;;;;7388930;19;20079;-79
2022/04/03 10:41:39;;;;;;;5.15;2.22;;;;;;;;;;7392836;19;20007;-78
2022/04/03 10:44:22;;;;;;;3.15;1.83;;;;;;;;;;7390576;19;20062;-79
2022/04/03 10:47:05;;;;;;;3.08;1.63;;;;;;;;;;7389641;19;20005;-78
2022/04/03 10:49:31;;;;;;;2.22;1.45;;;;;;;;;;7389249;19;20010;-79
2022/04/03 10:52:25;;;;;;;2.17;1.35;;;;;;;;;;7389317;19;20010;-78
2022/04/03 10:54:52;;;;;;;3.00;1.50;;;;;;;;;;7389299;19;20167;-79
2022/04/03 10:57:34;;;;;;;3.05;1.77;;;;;;;;;;7388996;19;20002;-79
2022/04/03 11:00:11;;;;;;;3.60;1.63;;;;;;;;;;7392008;19;20118;-80
2022/04/03 11:02:37;;;;;;;1.83;1.50;;;;;;;;;;7391356;19;20018;-79
2022/04/03 11:05:21;;;;;;;2.47;1.70;;;;;;;;;;7396635;19;20036;-80
2022/04/03 11:07:47;;;;;;;2.75;1.40;;;;;;;;;;7395657;19;20032;-81
2022/04/03 11:10:12;;;;;;;3.70;1.63;;;;;;;;;;7393826;19;20006;-79
2022/04/03 11:12:44;;;;;;;1.88;1.50;;;;;;;;;;7395890;19;20017;-79
2022/04/03 11:15:13;;;;;;;3.90;2.13;;;;;;;;;;7394490;19;20459;-78
2022/04/03 11:17:52;;;;;;;4.38;2.25;;;;;;;;;;7394907;19;20011;-80
2022/04/03 11:20:38;;;;;;;1.73;1.33;;;;;;;;;;7395749;19;20002;-80
2022/04/03 11:23:05;;;;;;;3.25;1.73;;;;;;;;;;7391121;19;20003;-80
2022/04/03 11:25:30;;;;;;;2.42;1.83;;;;;;;;;;7354931;19;20010;-80
2022/04/03 11:27:56;;;;;;;5.07;1.73;;;;;;;;;;7396460;19;20075;-80
2022/04/03 11:30:21;;;;;;;1.92;1.27;;;;;;;;;;7395671;19;20003;-80
2022/04/03 11:32:47;;;;;;;1.95;1.42;;;;;;;;;;7393270;19;20035;-80
2022/04/03 11:35:13;;;;;;;6.13;2.10;;;;;;;;;;7396454;19;20086;-81
2022/04/03 11:37:47;;;;;;;2.83;1.80;;;;;;;;;;7395473;19;20044;-80
2022/04/03 11:40:13;;;;;;;3.27;1.77;;;;;;;;;;7395434;19;20007;-80
2022/04/03 11:42:39;;;;;;;4.53;1.58;;;;;;;;;;7394287;19;20643;-82
2022/04/03 11:45:07;;;;;;;2.17;1.60;;;;;;;;;;7397916;19;20015;-81
2022/04/03 11:47:32;;;;;;;2.58;1.65;;;;;;;;;;7394944;19;20003;-81
2022/04/03 11:50:11;;;;;;;3.47;1.80;;;;;;;;;;7388933;19;20003;-81
2022/04/03 11:52:38;;;;;;;3.90;1.50;;;;;;;;;;7394844;19;20007;-81
2022/04/03 11:55:09;;;;;;;2.63;1.60;;;;;;;;;;7396131;19;20015;-81
2022/04/03 11:57:35;;;;;;;1.63;1.40;;;;;;;;;;7394334;19;20010;-80
2022/04/03 12:00:00;;;;;;;2.65;1.40;;;;;;;;;;7395849;19;20015;-80
2022/04/03 12:02:26;;;;;;;2.47;1.52;;;;;;;;;;7393629;19;20003;-80
2022/04/03 12:04:56;;;;;;;2.05;1.50;;;;;;;;;;7399025;19;20014;-80
2022/04/03 12:07:21;;;;;;;2.95;1.60;;;;;;;;;;7395585;19;20027;-79
2022/04/03 12:09:46;;;;;;;4.45;1.45;;;;;;;;;;7392353;19;20010;-81
2022/04/03 12:12:12;;;;;;;3.97;1.45;;;;;;;;;;7396397;19;20006;-80
2022/04/03 12:14:42;;;;;;;2.50;1.42;;;;;;;;;;7393669;19;20010;-80
2022/04/03 12:17:12;;;;;;;2.35;1.45;;;;;;;;;;7397222;19;20005;-79
2022/04/03 12:19:39;;;;;;;2.83;1.60;;;;;;;;;;7393912;19;20095;-80
2022/04/03 12:22:08;;;;;;;2.67;1.73;;;;;;;;;;7396631;19;20104;-79
2022/04/03 12:24:35;;;;;;;1.88;1.23;;;;;;;;;;7393605;19;20002;-77
2022/04/03 12:27:02;;;;;;;6.07;1.70;;;;;;;;;;7393339;19;20431;-81
2022/04/03 12:29:30;;;;;;;3.15;2.05;;;;;;;;;;7392755;19;21357;-79
2022/04/03 12:31:59;;;;;;;5.45;2.50;;;;;;;;;;7391822;19;20024;-79
2022/04/03 12:34:26;;;;;;;4.32;2.50;;;;;;;;;;7388216;19;20003;-79
2022/04/03 12:36:54;;;;;;;3.88;2.25;;;;;;;;;;7391149;19;20017;-79
2022/04/03 12:39:45;;;;;;;2.58;1.60;;;;;;;;;;7394852;19;20127;-79
2022/04/03 12:42:32;;;;;;;2.88;1.90;;;;;;;;;;7392434;19;20014;-78
2022/04/03 12:45:14;;;;;;;3.28;1.80;;;;;;;;;;7392211;19;20028;-79
2022/04/03 12:47:58;;;;;;;3.28;1.90;;;;;;;;;;7397033;19;20002;-79
2022/04/03 12:50:26;;;;;;;2.95;1.90;;;;;;;;;;7393823;19;20009;-79
2022/04/03 12:52:54;;;;;;;2.53;1.67;;;;;;;;;;7418411;19;20006;-79
2022/04/03 12:55:22;;;;;;;2.53;1.70;;;;;;;;;;7419068;19;20003;-79
2022/04/03 13:00:54;;;;;;;3.28;1.80;;;;;;;;;;7421845;19;19998;-81
2022/04/03 13:03:29;;;;;;;2.80;1.80;;;;;;;;;;7399429;19;20449;-80
2022/04/03 13:05:56;;;;;;;;;;;;;;;;;;7395943;19;20003;-78
2022/04/03 13:08:21;;;;;;;2.47;1.30;;;;;;;;;;7391727;19;19921;-78
2022/04/03 13:10:54;;;;;;;4.60;2.20;;;;;;;;;;7391590;19;20315;-78
2022/04/03 13:13:23;;;;;;;3.85;1.70;;;;;;;;;;7389333;19;20006;-78
2022/04/03 13:15:49;;;;;;;2.28;1.60;;;;;;;;;;7392804;19;20009;-78
2022/04/03 13:18:14;;;;;;;2.30;1.38;;;;;;;;;;7392091;19;20485;-78
2022/04/03 13:20:45;;;;;;;3.17;1.85;;;;;;;;;;7394779;19;20328;-78
2022/04/03 13:23:11;;;;;;;3.80;1.60;;;;;;;;;;7392333;19;20013;-78
2022/04/03 13:25:36;;;;;;;2.83;1.60;;;;;;;;;;7392489;19;20003;-78
2022/04/03 13:28:02;;;;;;;4.90;2.58;;;;;;;;;;7389587;19;20014;-78
2022/04/03 13:30:32;;;;;;;7.00;2.75;;;;;;;;;;7392784;19;20502;-77
2022/04/03 13:32:57;;;;;;;6.32;2.38;;;;;;;;;;7389282;19;20491;-78
2022/04/03 13:35:23;;;;;;;6.57;2.97;;;;;;;;;;7391622;19;20203;-78
2022/04/03 13:37:48;;;;;;;7.40;2.70;;;;;;;;;;7393388;19;20014;-78
2022/04/03 13:40:14;;;;;;;2.45;1.60;;;;;;;;;;7393402;19;20007;-78
2022/04/03 13:42:40;;;;;;;3.20;1.60;;;;;;;;;;7393387;19;20430;-77
2022/04/03 13:45:05;;;;;;;3.00;1.60;;;;;;;;;;7393779;19;20010;-78
2022/04/03 13:47:31;;;;;;;2.30;1.60;;;;;;;;;;7389356;19;20019;-78
2022/04/03 13:49:56;;;;;;;3.65;1.80;;;;;;;;;;7387243;19;20006;-78
2022/04/03 13:52:22;;;;;;;2.25;1.55;;;;;;;;;;7390612;19;20542;-78
2022/04/03 13:54:47;;;;;;;3.85;1.77;;;;;;;;;;7389287;19;20011;-78
2022/04/03 13:57:13;;;;;;;2.75;1.85;;;;;;;;;;7389708;19;20319;-78
2022/04/03 13:59:38;;;;;;;3.17;1.73;;;;;;;;;;7389037;19;20489;-78
2022/04/03 14:02:04;;;;;;;2.80;1.80;;;;;;;;;;7391554;19;20018;-77
2022/04/03 14:04:30;;;;;;;2.90;1.90;;;;;;;;;;7399747;19;20007;-79
2022/04/03 14:06:55;;;;;;;2.40;1.60;;;;;;;;;;7390568;19;20014;-79
2022/04/03 14:09:20;;;;;;;8.18;3.22;;;;;;;;;;7392424;19;19998;-80
2022/04/03 14:11:46;;;;;;;7.15;2.65;;;;;;;;;;7388706;19;20037;-79
2022/04/03 14:14:12;;;;;;;5.97;3.13;;;;;;;;;;7391765;19;20165;-80
2022/04/03 14:16:38;;;;;;;9.88;4.30;;;;;;;;;;7394090;19;20114;-79
2022/04/03 14:19:03;;;;;;;9.90;3.90;;;;;;;;;;7389053;19;20010;-79
2022/04/03 14:21:31;;;;;;;2.40;1.80;;;;;;;;;;7393457;19;20010;-80
2022/04/03 14:23:56;;;;;;;4.63;3.00;;;;;;;;;;7393191;19;20007;-79
2022/04/03 14:26:22;;;;;;;4.15;2.20;;;;;;;;;;7389719;19;20017;-79
2022/04/03 14:28:47;;;;;;;4.35;2.13;;;;;;;;;;7391417;19;20494;-79
2022/04/03 14:31:12;;;;;;;2.28;1.88;;;;;;;;;;7389481;19;20098;-79
2022/04/03 14:33:38;;;;;;;4.07;1.98;;;;;;;;;;7389931;19;20482;-79
2022/04/03 14:36:03;;;;;;;3.72;1.92;;;;;;;;;;7389163;19;20510;-80
2022/04/03 14:38:29;;;;;;;2.38;1.90;;;;;;;;;;7394698;19;20047;-80
2022/04/03 14:40:54;;;;;;;2.78;1.90;;;;;;;;;;7397272;19;20497;-80
2022/04/03 14:43:20;;;;;;;2.20;1.73;;;;;;;;;;7394717;19;20018;-79
2022/04/03 14:45:45;;;;;;;4.90;2.03;;;;;;;;;;7401379;19;20010;-79